Terminal Aerodrome Forecast
Issued by NWS Twin Cities, MN

Home | Current Version | Previous Version | Text Only | Print | Product List | Glossary On
Versions: 1 2 3 4 5 6 7 8 9 10 11 12 13 14 15 16
000
FTUS43 KMPX 231400 AAA
TAFSTC
TAF AMD
KSTC 231440Z 2315/2412 23004KT 1/4SM FG VV002
      TEMPO 2315/2316 3SM BR VV006
     FM231600 24008KT 6SM BR FEW005
     FM231630 24008KT P6SM SKC
     FM240100 19005KT P6SM SKC
     FM240800 18004KT 4SM BR FEW200=

USA.gov is the U.S. government's official web portal to all federal, state and local government web resources and services.